createdAt,value
2024-02-19T00:02:26.432Z,13.98
2024-02-19T00:04:53.263Z,13.65
2024-02-19T00:07:21.255Z,13.50
2024-02-19T00:09:48.676Z,13.52
2024-02-19T00:12:16.847Z,14.07
2024-02-19T00:14:45.007Z,14.25
2024-02-19T00:17:15.241Z,13.75
2024-02-19T00:19:45.804Z,13.60
2024-02-19T00:22:13.965Z,13.85
2024-02-19T00:24:40.874Z,14.25
2024-02-19T00:27:09.165Z,14.02
2024-02-19T00:29:35.952Z,13.52
2024-02-19T00:32:04.991Z,14.30
2024-02-19T00:34:31.838Z,14.05
2024-02-19T00:36:59.683Z,13.57
2024-02-19T00:39:27.773Z,13.13
2024-02-19T00:41:55.468Z,13.25
2024-02-19T00:44:24.719Z,12.60
2024-02-19T00:46:51.525Z,12.60
2024-02-19T00:49:19.759Z,12.13
2024-02-19T00:51:47.899Z,11.23
2024-02-19T00:54:15.877Z,11.60
2024-02-19T00:56:43.922Z,11.15
2024-02-19T00:59:11.680Z,10.63
2024-02-19T01:01:41.564Z,10.80
2024-02-19T01:04:08.720Z,10.55
2024-02-19T01:06:37.105Z,10.77
2024-02-19T01:09:04.004Z,9.75
2024-02-19T01:11:32.185Z,9.52
2024-02-19T01:14:00.112Z,9.20
2024-02-19T01:16:28.384Z,9.75
2024-02-19T01:18:57.093Z,8.88
2024-02-19T01:21:26.970Z,8.45
2024-02-19T01:23:57.402Z,9.00
2024-02-19T01:26:26.879Z,8.80
2024-02-19T01:28:53.634Z,8.88
2024-02-19T01:31:20.648Z,9.30
2024-02-19T01:33:48.569Z,8.57
2024-02-19T01:36:15.637Z,7.78
2024-02-19T01:38:43.939Z,7.90
2024-02-19T01:41:11.858Z,8.32
2024-02-19T01:43:39.971Z,7.97
2024-02-19T01:46:07.812Z,8.32
2024-02-19T01:48:35.938Z,7.90
2024-02-19T01:51:05.021Z,7.55
2024-02-19T01:53:35.582Z,7.57
2024-02-19T01:56:05.671Z,7.50
2024-02-19T01:58:35.485Z,7.43
2024-02-19T02:01:04.112Z,6.93
2024-02-19T02:03:34.458Z,7.28
2024-02-19T02:06:01.486Z,7.07
2024-02-19T02:08:28.394Z,6.60
2024-02-19T02:10:55.481Z,6.30
2024-02-19T02:13:22.288Z,6.45
2024-02-19T02:15:49.631Z,6.45
2024-02-19T02:18:17.854Z,6.28
2024-02-19T02:20:44.795Z,6.13
2024-02-19T02:23:14.961Z,6.25
2024-02-19T02:25:41.823Z,6.38
2024-02-19T02:28:09.612Z,5.75
2024-02-19T02:30:37.750Z,5.55
2024-02-19T02:33:04.909Z,5.10
2024-02-19T02:35:33.033Z,5.18
2024-02-19T02:37:59.809Z,5.40
2024-02-19T02:40:27.081Z,5.75
2024-02-19T02:42:56.979Z,5.88
2024-02-19T02:45:23.786Z,6.00
2024-02-19T02:47:50.620Z,6.00
2024-02-19T02:50:18.686Z,5.88
2024-02-19T02:52:45.602Z,6.30
2024-02-19T02:55:14.097Z,6.82
2024-02-19T02:57:40.949Z,7.00
2024-02-19T03:00:09.821Z,7.45
2024-02-19T03:02:36.665Z,7.70
2024-02-19T03:05:03.876Z,7.70
2024-02-19T03:07:32.033Z,7.82
2024-02-19T03:09:59.002Z,7.50
2024-02-19T03:12:29.472Z,7.95
2024-02-19T03:14:58.778Z,8.15
2024-02-19T03:17:26.811Z,7.97
2024-02-19T03:19:53.702Z,7.38
2024-02-19T03:22:21.596Z,7.35
2024-02-19T03:24:48.502Z,7.00
2024-02-19T03:27:18.020Z,6.68
2024-02-19T03:29:48.440Z,7.60
2024-02-19T03:32:17.466Z,7.50
2024-02-19T03:34:45.273Z,8.05
2024-02-19T03:37:13.172Z,7.60
2024-02-19T03:39:41.185Z,7.22
2024-02-19T03:42:08.610Z,7.78
2024-02-19T03:44:36.929Z,7.38
2024-02-19T03:47:03.746Z,7.22
2024-02-19T03:49:33.076Z,7.45
2024-02-19T03:51:59.919Z,7.82
2024-02-19T03:54:26.808Z,6.78
2024-02-19T03:56:53.755Z,6.50
2024-02-19T03:59:22.043Z,6.32
2024-02-19T04:01:50.337Z,6.30
2024-02-19T04:04:18.961Z,6.47
2024-02-19T04:06:46.942Z,5.63
2024-02-19T04:09:14.621Z,6.32
2024-02-19T04:11:43.076Z,7.63
2024-02-19T04:14:11.421Z,7.20
2024-02-19T04:16:42.451Z,6.65
2024-02-19T04:19:10.486Z,5.40
2024-02-19T04:21:46.742Z,5.00
2024-02-19T04:24:14.691Z,4.10
2024-02-19T04:26:41.612Z,3.13
2024-02-19T04:29:10.381Z,2.57
2024-02-19T04:31:40.053Z,2.85
2024-02-19T04:34:08.899Z,2.92
2024-02-19T04:36:38.463Z,3.22
2024-02-19T04:39:08.774Z,2.30
2024-02-19T04:41:40.259Z,2.90
2024-02-19T04:44:08.531Z,2.57
2024-02-19T04:46:35.588Z,2.93
2024-02-19T04:49:02.595Z,2.40
2024-02-19T04:51:29.508Z,1.83
2024-02-19T04:53:59.807Z,2.43
2024-02-19T04:56:26.616Z,1.93
2024-02-19T04:58:53.395Z,1.92
2024-02-19T05:01:21.759Z,1.70
2024-02-19T05:03:49.735Z,1.15
2024-02-19T05:06:19.781Z,1.65
2024-02-19T05:08:48.758Z,1.85
2024-02-19T05:11:15.928Z,2.00
2024-02-19T05:13:42.878Z,2.10
2024-02-19T05:16:11.338Z,2.47
2024-02-19T05:18:39.790Z,2.60
2024-02-19T05:21:06.656Z,2.53
2024-02-19T05:23:36.918Z,2.97
2024-02-19T05:26:07.660Z,3.08
2024-02-19T05:28:37.614Z,2.67
2024-02-19T05:31:04.628Z,3.03
2024-02-19T05:33:31.541Z,3.13
2024-02-19T05:35:58.359Z,3.25
2024-02-19T05:38:25.522Z,3.80
2024-02-19T05:40:52.388Z,3.33
2024-02-19T05:43:20.436Z,3.20
2024-02-19T05:45:51.044Z,4.07
2024-02-19T05:48:21.189Z,3.70
2024-02-19T05:50:49.263Z,3.90
2024-02-19T05:53:16.183Z,3.90
2024-02-19T05:55:45.965Z,4.00
2024-02-19T05:58:13.915Z,3.83
2024-02-19T06:00:41.769Z,4.88
2024-02-19T06:03:11.184Z,4.05
2024-02-19T06:05:41.339Z,3.88
2024-02-19T06:08:13.311Z,4.28
2024-02-19T06:10:42.045Z,4.68
2024-02-19T06:13:08.867Z,3.63
2024-02-19T06:15:36.685Z,3.33
2024-02-19T06:18:05.398Z,2.40
2024-02-19T06:20:33.005Z,1.90
2024-02-19T06:23:03.093Z,1.70
2024-02-19T06:25:32.293Z,1.30
2024-02-19T06:27:59.141Z,1.60
2024-02-19T06:30:26.033Z,1.40
2024-02-19T06:32:52.860Z,0.80
2024-02-19T06:35:19.855Z,1.10
2024-02-19T06:37:49.640Z,1.45
2024-02-19T06:40:17.216Z,1.10
2024-02-19T06:42:45.284Z,1.37
2024-02-19T06:45:12.112Z,1.25
2024-02-19T06:47:40.969Z,1.60
2024-02-19T06:50:09.494Z,1.93
2024-02-19T06:52:37.829Z,1.60
2024-02-19T06:55:06.593Z,1.98
2024-02-19T06:57:33.564Z,1.77
2024-02-19T07:00:01.863Z,1.73
2024-02-19T07:02:29.032Z,2.50
2024-02-19T07:04:55.926Z,1.90
2024-02-19T07:07:22.980Z,1.77
2024-02-19T07:09:51.117Z,2.10
2024-02-19T07:12:18.177Z,1.80
2024-02-19T07:14:46.319Z,2.00
2024-02-19T07:17:15.290Z,2.13
2024-02-19T07:19:42.780Z,2.22
2024-02-19T07:22:10.774Z,2.28
2024-02-19T07:24:37.613Z,2.35
2024-02-19T07:27:04.656Z,2.75
2024-02-19T07:29:31.516Z,3.08
2024-02-19T07:31:58.318Z,3.20
2024-02-19T07:34:25.658Z,2.13
2024-02-19T07:36:54.101Z,1.80
2024-02-19T07:39:22.087Z,1.58
2024-02-19T07:41:51.510Z,1.75
2024-02-19T07:44:18.304Z,1.70
2024-02-19T07:46:46.458Z,1.80
2024-02-19T07:49:13.355Z,1.63
2024-02-19T07:51:41.812Z,1.08
2024-02-19T07:54:08.616Z,1.40
2024-02-19T07:56:35.386Z,1.20
2024-02-19T07:59:03.885Z,1.40
2024-02-19T08:01:32.174Z,1.00
2024-02-19T08:04:00.528Z,1.38
2024-02-19T08:06:27.387Z,1.20
2024-02-19T08:08:55.573Z,0.80
2024-02-19T08:11:22.486Z,1.25
2024-02-19T08:13:50.885Z,1.20
2024-02-19T08:16:19.151Z,0.95
2024-02-19T08:18:47.324Z,0.93
2024-02-19T08:21:14.567Z,0.80
2024-02-19T08:23:42.643Z,0.85
2024-02-19T08:26:09.563Z,0.80
2024-02-19T08:28:47.664Z,0.70
2024-02-19T08:31:19.658Z,0.80
2024-02-19T08:33:47.761Z,0.52
2024-02-19T08:36:14.891Z,0.47
2024-02-19T08:38:43.024Z,0.45
2024-02-19T08:41:09.834Z,0.63
2024-02-19T08:43:38.257Z,0.65
2024-02-19T08:46:06.090Z,0.43
2024-02-19T08:48:36.037Z,0.53
2024-02-19T08:51:02.891Z,0.70
2024-02-19T08:53:31.172Z,0.60
2024-02-19T08:55:59.555Z,0.70
2024-02-19T08:58:27.836Z,0.65
2024-02-19T09:00:55.720Z,0.60
2024-02-19T09:03:22.592Z,0.70
2024-02-19T09:05:49.454Z,0.63
2024-02-19T09:08:16.261Z,0.50
2024-02-19T09:10:44.574Z,0.70
2024-02-19T09:13:13.065Z,0.60
2024-02-19T09:15:41.142Z,0.68
2024-02-19T09:18:09.189Z,0.80
2024-02-19T09:20:37.104Z,0.65
2024-02-19T09:23:06.451Z,0.80
2024-02-19T09:25:33.324Z,0.82
2024-02-19T09:28:00.143Z,0.90
2024-02-19T09:30:28.273Z,1.15
2024-02-19T09:32:55.517Z,1.15
2024-02-19T09:35:22.536Z,1.15
2024-02-19T09:40:24.897Z,1.52
2024-02-19T09:42:51.948Z,1.70
2024-02-19T09:45:18.809Z,1.67
2024-02-19T09:47:47.561Z,1.50
2024-02-19T09:50:15.548Z,1.45
2024-02-19T09:52:45.437Z,1.10
2024-02-19T09:55:12.343Z,1.20
2024-02-19T09:57:40.491Z,1.30
2024-02-19T10:00:12.151Z,1.50
2024-02-19T10:02:40.294Z,1.42
2024-02-19T10:05:08.853Z,1.42
2024-02-19T10:07:37.056Z,1.52
2024-02-19T10:10:05.112Z,2.33
2024-02-19T10:12:31.878Z,2.63
2024-02-19T10:15:02.828Z,3.30
2024-02-19T10:17:31.832Z,3.58
2024-02-19T10:20:05.699Z,3.60
2024-02-19T10:22:37.223Z,3.72
2024-02-19T10:25:05.992Z,3.67
2024-02-19T10:27:39.478Z,3.30
2024-02-19T10:30:07.602Z,3.20
2024-02-19T10:32:36.002Z,3.55
2024-02-19T10:35:04.941Z,3.40
2024-02-19T10:37:33.978Z,3.13
2024-02-19T10:40:03.869Z,2.83
2024-02-19T10:42:30.973Z,2.53
2024-02-19T10:44:57.803Z,2.30
2024-02-19T10:47:26.506Z,2.20
2024-02-19T10:49:59.954Z,2.03
2024-02-19T10:52:27.615Z,2.40
2024-02-19T10:55:05.245Z,2.13
2024-02-19T10:57:59.042Z,2.30
2024-02-19T11:00:28.705Z,2.03
2024-02-19T11:03:09.303Z,1.83
2024-02-19T11:05:45.454Z,1.55
2024-02-19T11:08:23.229Z,1.33
2024-02-19T11:10:53.720Z,1.10
2024-02-19T11:13:23.689Z,1.00
2024-02-19T11:15:50.651Z,1.00
2024-02-19T11:18:20.039Z,0.90
2024-02-19T11:20:49.757Z,1.03
2024-02-19T11:23:19.013Z,0.85
2024-02-19T11:25:49.750Z,0.70
2024-02-19T11:28:16.930Z,0.70
2024-02-19T11:30:47.790Z,0.90
2024-02-19T11:33:14.699Z,0.80
2024-02-19T11:35:44.312Z,0.70
2024-02-19T11:38:12.801Z,0.80
2024-02-19T11:40:41.166Z,0.50
2024-02-19T11:43:13.928Z,0.60
2024-02-19T11:45:45.073Z,0.95
2024-02-19T11:48:16.187Z,0.65
2024-02-19T11:50:46.686Z,0.50
2024-02-19T11:53:16.261Z,0.52
2024-02-19T11:55:43.103Z,0.77
2024-02-19T11:58:11.315Z,1.15
2024-02-19T12:00:38.246Z,0.70
2024-02-19T12:03:06.583Z,0.60
2024-02-19T12:05:33.485Z,0.60
2024-02-19T12:08:01.730Z,0.80
2024-02-19T12:10:29.129Z,0.90
2024-02-19T12:12:57.262Z,1.00
2024-02-19T12:15:26.585Z,0.60
2024-02-19T12:17:54.814Z,1.13
2024-02-19T12:20:23.940Z,0.93
2024-02-19T12:22:53.921Z,0.98
2024-02-19T12:25:21.011Z,0.97
2024-02-19T12:27:49.551Z,0.93
2024-02-19T12:30:18.376Z,0.70
2024-02-19T12:32:46.631Z,0.70
2024-02-19T12:35:13.707Z,0.70
2024-02-19T12:37:41.876Z,0.70
2024-02-19T12:40:09.910Z,0.77
2024-02-19T12:42:38.079Z,0.80
2024-02-19T12:45:09.090Z,0.70
2024-02-19T12:47:38.434Z,1.10
2024-02-19T12:50:08.329Z,0.80
2024-02-19T12:52:36.653Z,0.90
2024-02-19T12:55:03.834Z,0.95
2024-02-19T12:57:32.417Z,0.60
2024-02-19T12:59:59.173Z,0.68
2024-02-19T13:02:26.065Z,0.70
2024-02-19T13:04:53.121Z,0.93
2024-02-19T13:07:20.538Z,0.63
2024-02-19T13:09:48.720Z,0.70
2024-02-19T13:12:15.666Z,0.90
2024-02-19T13:14:48.709Z,0.88
2024-02-19T13:17:22.904Z,0.95
2024-02-19T13:19:53.121Z,1.10
2024-02-19T13:22:20.082Z,0.70
2024-02-19T13:24:48.067Z,1.10
2024-02-19T13:27:14.921Z,0.80
2024-02-19T13:29:43.158Z,1.20
2024-02-19T13:32:09.994Z,1.08
2024-02-19T13:34:40.425Z,1.10
2024-02-19T13:37:11.133Z,1.30
2024-02-19T13:39:41.663Z,1.40
2024-02-19T13:42:12.234Z,1.17
2024-02-19T13:44:42.759Z,1.20
2024-02-19T13:47:12.521Z,1.13
2024-02-19T13:49:39.441Z,1.10
2024-02-19T13:52:07.643Z,1.30
2024-02-19T13:54:36.754Z,5.22
2024-02-19T13:57:04.618Z,1.20
2024-02-19T13:59:33.614Z,1.00
2024-02-19T14:02:01.332Z,1.00
2024-02-19T14:04:28.592Z,1.10
2024-02-19T14:06:55.584Z,1.00
2024-02-19T14:09:23.540Z,1.17
2024-02-19T14:11:50.295Z,1.23
2024-02-19T14:14:17.376Z,1.00
2024-02-19T14:16:45.838Z,0.97
2024-02-19T14:19:12.701Z,1.00
2024-02-19T14:21:40.819Z,0.93
2024-02-19T14:24:08.052Z,0.90
2024-02-19T14:26:34.879Z,0.98
2024-02-19T14:29:02.926Z,1.23
2024-02-19T14:31:29.932Z,1.10
2024-02-19T14:34:00.505Z,1.20
2024-02-19T14:36:28.817Z,1.30
2024-02-19T14:38:56.138Z,1.20
2024-02-19T14:41:23.326Z,1.10
2024-02-19T14:43:50.124Z,1.00
2024-02-19T14:46:18.331Z,1.35
2024-02-19T14:48:45.535Z,1.10
2024-02-19T14:51:15.117Z,1.48
2024-02-19T14:53:45.425Z,1.20
2024-02-19T14:56:15.807Z,1.00
2024-02-19T14:58:46.195Z,1.37
2024-02-19T15:01:14.230Z,1.48
2024-02-19T15:03:42.339Z,1.20
2024-02-19T15:06:10.683Z,1.30
2024-02-19T15:08:38.425Z,1.20
2024-02-19T15:11:06.494Z,1.40
2024-02-19T15:13:37.015Z,1.10
2024-02-19T15:16:06.551Z,1.20
2024-02-19T15:18:36.762Z,1.58
2024-02-19T15:21:06.595Z,0.95
2024-02-19T15:23:33.362Z,1.02
2024-02-19T15:26:02.540Z,0.80
2024-02-19T15:28:31.078Z,1.10
2024-02-19T15:30:57.926Z,0.85
2024-02-19T15:33:26.693Z,0.70
2024-02-19T15:35:53.503Z,0.70
2024-02-19T15:38:22.101Z,0.90
2024-02-19T15:40:49.081Z,0.85
2024-02-19T15:43:17.015Z,1.00
2024-02-19T15:45:45.162Z,0.95
2024-02-19T15:48:12.577Z,0.82
2024-02-19T15:50:40.664Z,1.08
2024-02-19T15:53:11.152Z,1.15
2024-02-19T15:55:41.118Z,1.02
2024-02-19T15:58:07.992Z,1.27
2024-02-19T16:00:36.744Z,1.48
2024-02-19T16:03:03.712Z,1.30
2024-02-19T16:05:32.192Z,1.58
2024-02-19T16:07:59.021Z,1.67
2024-02-19T16:10:27.377Z,1.02
2024-02-19T16:12:55.788Z,1.30
2024-02-19T16:15:22.562Z,1.23
2024-02-19T16:17:50.676Z,1.30
2024-02-19T16:20:18.734Z,1.10
2024-02-19T16:22:46.744Z,0.90
2024-02-19T16:25:13.714Z,1.08
2024-02-19T16:27:41.638Z,1.00
2024-02-19T16:30:10.525Z,1.20
2024-02-19T16:32:38.926Z,1.00
2024-02-19T16:35:06.456Z,1.35
2024-02-19T16:37:33.586Z,1.02
2024-02-19T16:40:02.837Z,1.60
2024-02-19T16:42:31.120Z,1.65
2024-02-19T16:44:57.902Z,1.75
2024-02-19T16:47:25.553Z,2.03
2024-02-19T16:49:52.534Z,1.10
2024-02-19T16:52:20.397Z,1.20
2024-02-19T16:54:51.062Z,1.50
2024-02-19T16:57:17.879Z,1.38
2024-02-19T16:59:46.026Z,1.95
2024-02-19T17:02:13.946Z,2.30
2024-02-19T17:04:42.423Z,2.03
2024-02-19T17:07:10.728Z,2.03
2024-02-19T17:09:40.567Z,2.33
2024-02-19T17:12:08.722Z,1.90
2024-02-19T17:14:36.945Z,2.28
2024-02-19T17:17:03.859Z,2.08
2024-02-19T17:19:31.688Z,2.10
2024-02-19T17:22:01.085Z,2.08
2024-02-19T17:24:28.270Z,2.60
2024-02-19T17:26:56.458Z,2.10
2024-02-19T17:29:23.249Z,2.30
2024-02-19T17:31:53.460Z,2.03
2024-02-19T17:34:23.275Z,2.00
2024-02-19T17:36:50.082Z,2.30
2024-02-19T17:39:17.038Z,2.10
2024-02-19T17:41:45.554Z,2.40
2024-02-19T17:44:13.474Z,2.47
2024-02-19T17:46:40.320Z,2.30
2024-02-19T17:49:07.402Z,2.93
2024-02-19T17:51:36.648Z,2.67
2024-02-19T17:54:06.980Z,2.70
2024-02-19T17:56:35.116Z,2.47
2024-02-19T17:59:01.891Z,2.65
2024-02-19T18:01:29.951Z,2.20
2024-02-19T18:03:56.969Z,2.60
2024-02-19T18:06:25.028Z,2.63
2024-02-19T18:08:51.849Z,2.45
2024-02-19T18:11:19.532Z,2.75
2024-02-19T18:13:46.437Z,2.58
2024-02-19T18:16:14.689Z,2.65
2024-02-19T18:18:42.866Z,2.83
2024-02-19T18:21:10.826Z,2.75
2024-02-19T18:23:41.146Z,2.60
2024-02-19T18:26:09.007Z,2.67
2024-02-19T18:28:36.152Z,2.45
2024-02-19T18:31:04.698Z,2.40
2024-02-19T18:33:33.082Z,2.30
2024-02-19T18:36:02.508Z,2.73
2024-02-19T18:38:29.256Z,2.28
2024-02-19T18:40:56.027Z,2.90
2024-02-19T18:43:23.061Z,2.60
2024-02-19T18:45:50.974Z,2.60
2024-02-19T18:48:17.808Z,3.00
2024-02-19T18:50:49.501Z,2.97
2024-02-19T18:53:19.092Z,2.72
2024-02-19T18:55:59.569Z,2.70
2024-02-19T18:58:28.743Z,2.88
2024-02-19T19:00:58.487Z,3.45
2024-02-19T19:03:28.130Z,3.58
2024-02-19T19:05:55.802Z,3.80
2024-02-19T19:08:23.341Z,3.70
2024-02-19T19:10:52.899Z,4.13
2024-02-19T19:13:19.929Z,4.43
2024-02-19T19:15:48.544Z,4.03
2024-02-19T19:18:16.682Z,4.30
2024-02-19T19:20:44.361Z,4.80
2024-02-19T19:23:12.436Z,5.35
2024-02-19T19:25:39.264Z,6.00
2024-02-19T19:30:48.380Z,6.65
2024-02-19T19:33:18.840Z,7.18
2024-02-19T19:35:47.233Z,7.15
2024-02-19T19:38:14.042Z,7.53
2024-02-19T19:40:43.184Z,8.70
2024-02-19T19:43:15.262Z,8.15
2024-02-19T19:45:43.506Z,7.40
2024-02-19T19:48:11.883Z,5.80
2024-02-19T19:50:39.900Z,6.60
2024-02-19T19:53:07.817Z,6.75
2024-02-19T19:55:36.253Z,6.72
2024-02-19T19:58:08.324Z,7.38
2024-02-19T20:00:42.030Z,7.50
2024-02-19T20:03:09.307Z,7.85
2024-02-19T20:05:37.714Z,7.95
2024-02-19T20:08:06.659Z,7.63
2024-02-19T20:10:36.122Z,8.48
2024-02-19T20:13:03.352Z,8.77
2024-02-19T20:15:31.600Z,9.48
2024-02-19T20:18:00.252Z,9.15
2024-02-19T20:20:28.164Z,9.07
2024-02-19T20:22:56.727Z,9.77
2024-02-19T20:25:27.431Z,9.82
2024-02-19T20:27:56.536Z,8.43
2024-02-19T20:30:24.805Z,9.30
2024-02-19T20:32:51.651Z,9.52
2024-02-19T20:35:18.472Z,9.18
2024-02-19T20:37:47.776Z,9.03
2024-02-19T20:40:16.117Z,9.27
2024-02-19T20:42:43.159Z,9.23
2024-02-19T20:45:12.397Z,10.25
2024-02-19T20:47:40.187Z,9.43
2024-02-19T20:50:08.717Z,10.35
2024-02-19T20:52:38.049Z,9.90
2024-02-19T20:55:05.390Z,9.95
2024-02-19T20:57:32.937Z,9.80
2024-02-19T21:00:02.084Z,10.70
2024-02-19T21:02:28.898Z,9.70
2024-02-19T21:04:56.341Z,9.90
2024-02-19T21:07:23.270Z,9.95
2024-02-19T21:09:50.520Z,10.37
2024-02-19T21:12:18.484Z,10.57
2024-02-19T21:14:46.459Z,10.25
2024-02-19T21:17:16.921Z,10.38
2024-02-19T21:19:45.961Z,10.75
2024-02-19T21:22:13.031Z,11.48
2024-02-19T21:24:41.435Z,10.68
2024-02-19T21:27:08.223Z,10.77
2024-02-19T21:29:36.350Z,11.57
2024-02-19T21:32:04.966Z,11.90
2024-02-19T21:34:32.916Z,11.63
2024-02-19T21:37:00.793Z,12.32
2024-02-19T21:39:29.810Z,12.47
2024-02-19T21:41:57.081Z,13.07
2024-02-19T21:44:25.810Z,13.25
2024-02-19T21:46:52.634Z,12.47
2024-02-19T21:49:20.104Z,13.50
2024-02-19T21:51:48.246Z,13.15
2024-02-19T21:54:16.669Z,13.15
2024-02-19T21:56:46.582Z,13.57
2024-02-19T21:59:14.848Z,12.45
2024-02-19T22:01:43.287Z,12.90
2024-02-19T22:04:10.191Z,12.35
2024-02-19T22:06:38.310Z,12.13
2024-02-19T22:09:05.092Z,11.82
2024-02-19T22:11:32.403Z,11.65
2024-02-19T22:14:00.353Z,11.52
2024-02-19T22:16:27.196Z,12.43
2024-02-19T22:18:56.787Z,11.83
2024-02-19T22:21:27.356Z,12.50
2024-02-19T22:23:57.244Z,12.05
2024-02-19T22:26:26.258Z,12.18
2024-02-19T22:28:53.011Z,13.00
2024-02-19T22:31:19.830Z,12.70
2024-02-19T22:33:48.273Z,12.60
2024-02-19T22:36:15.172Z,12.65
2024-02-19T22:38:45.510Z,12.60
2024-02-19T22:41:12.409Z,12.63
2024-02-19T22:43:39.251Z,13.27
2024-02-19T22:46:07.509Z,12.40
2024-02-19T22:48:34.529Z,13.43
2024-02-19T22:51:02.947Z,14.07
2024-02-19T22:53:29.829Z,14.05
2024-02-19T22:55:58.401Z,14.07
2024-02-19T22:58:31.183Z,14.88
2024-02-19T23:01:03.943Z,14.85
2024-02-19T23:03:33.597Z,15.33
2024-02-19T23:06:01.763Z,14.75
2024-02-19T23:08:28.664Z,15.00
2024-02-19T23:10:56.710Z,14.60
2024-02-19T23:13:23.546Z,15.48
2024-02-19T23:15:51.797Z,14.90
2024-02-19T23:18:21.396Z,16.13
2024-02-19T23:20:51.900Z,16.25
2024-02-19T23:23:21.888Z,15.20
2024-02-19T23:25:48.669Z,16.50
2024-02-19T23:28:15.478Z,16.65
2024-02-19T23:30:42.353Z,16.10
2024-02-19T23:35:50.880Z,15.60
2024-02-19T23:38:21.470Z,16.42
2024-02-19T23:40:49.960Z,16.08
2024-02-19T23:43:17.260Z,16.00
2024-02-19T23:45:45.400Z,15.50
2024-02-19T23:48:12.376Z,15.55
2024-02-19T23:50:40.344Z,16.10
2024-02-19T23:53:07.186Z,15.55
2024-02-19T23:55:34.120Z,15.63
2024-02-19T23:58:05.934Z,15.90
